04:21
Airports
History
Links
Donate
Help keep this website running!
PayPal
Bitcoin
Information on this page is community maintained and may be outdated or inaccurate and is intended for reference only or PC simulator navigating!
Always use approved charts for navigating.
SIYR
Fazenda Santa Terezinha
Fazenda Santa Terezinha (SIYR)
Tapejara, Rio Grande do Sul, Brazil (99950)
4
Lat/Lng:28° 3' 8" S / 51° 57' 39" W
-28.052222 / -51.960833
Elevation:2199'ft 670mMSL
ID / ICAO:SIYR
Runways:1
Longest:(10-28) 708.1m 2,323ft Grass
Distance To
Airport ID:
Nearby WeatherUpdated 03-27-17 22:00 GMT
Nearby weather at SBPF, Lauro Kurtz located 26.0 nautical miles from SIYR
Altimeter: 30.03
Visibility: 6.2 statute miles
Wind: 12 knots (170°)
Temp: 24°c 75°f
Humidity: 69.2%

METAR: SBPF 272200Z 17012KT CAVOK 24/18 Q1017

(Powered by phpweather)
Runway 10 / 28
Dimensions:708.1 x 20.1m 2323' x 66'ft
Surface:Grass
Runway 10 [A]Runway 28 [B]
Heading:083°TH 263°TH
Lat:
Lng:
28° 3' 9.35"S
51° 57' 51.77"W
28° 3' 6.65"S
51° 57' 26.23"W
Google Map
Nearby Airports
(C) Getulio Vargas 18.9 NM
SSGV NW 313°
4 Fazenda Coxilha 22.2 NM
SSCX WSW 258°
(U) Lauro Kurtz 26.0 NM
SBPF (WX) WSW 239°
(C) Erechim 32.9 NM
SSER NW 325°
(C) Aeroclub 36.5 NM
SSAQ WSW 247°
4 Fazenda Arco de Canto 41.0 NM
SSTD SSE 147°
(C) Sarandi 55.3 NM
SSXD W 275°
VFR Chart
Flight Planning at SkyVector.com